createdAt,value
2022-11-27T00:01:40.693Z,2.00
2022-11-27T00:04:15.656Z,2.00
2022-11-27T00:06:44.709Z,2.00
2022-11-27T00:09:15.905Z,2.10
2022-11-27T00:11:44.504Z,2.10
2022-11-27T00:14:14.068Z,2.10
2022-11-27T00:16:42.408Z,2.10
2022-11-27T00:19:12.782Z,2.20
2022-11-27T00:21:40.696Z,2.10
2022-11-27T00:24:10.042Z,2.20
2022-11-27T00:26:38.536Z,2.20
2022-11-27T00:29:06.852Z,2.10
2022-11-27T00:31:37.234Z,2.10
2022-11-27T00:34:07.714Z,2.00
2022-11-27T00:36:37.580Z,2.00
2022-11-27T00:39:06.450Z,2.00
2022-11-27T00:41:34.751Z,2.10
2022-11-27T00:44:02.662Z,2.20
2022-11-27T00:46:32.356Z,2.20
2022-11-27T00:49:02.591Z,2.20
2022-11-27T00:51:31.170Z,2.20
2022-11-27T00:54:00.474Z,2.30
2022-11-27T00:56:30.237Z,2.30
2022-11-27T00:58:58.861Z,2.40
2022-11-27T01:01:28.822Z,2.40
2022-11-27T01:03:57.162Z,2.50
2022-11-27T01:06:25.999Z,2.50
2022-11-27T01:08:54.056Z,2.50
2022-11-27T01:11:25.679Z,2.40
2022-11-27T01:13:55.923Z,2.40
2022-11-27T01:16:25.505Z,2.30
2022-11-27T01:18:56.253Z,2.30
2022-11-27T01:21:24.626Z,2.30
2022-11-27T01:23:52.564Z,2.40
2022-11-27T01:26:20.842Z,2.50
2022-11-27T01:28:53.355Z,2.70
2022-11-27T01:31:24.607Z,2.70
2022-11-27T01:33:54.961Z,2.60
2022-11-27T01:36:23.846Z,2.50
2022-11-27T01:38:52.544Z,2.40
2022-11-27T01:41:23.979Z,2.20
2022-11-27T01:43:55.332Z,2.20
2022-11-27T01:46:39.211Z,2.20
2022-11-27T01:49:24.478Z,2.20
2022-11-27T01:51:57.296Z,2.30
2022-11-27T01:54:30.526Z,2.20
2022-11-27T01:57:03.919Z,2.10
2022-11-27T01:59:33.693Z,1.90
2022-11-27T02:02:02.580Z,1.90
2022-11-27T02:04:30.722Z,1.90
2022-11-27T02:07:00.456Z,2.00
2022-11-27T02:09:28.990Z,2.00
2022-11-27T02:12:01.800Z,2.10
2022-11-27T02:14:40.787Z,2.10
2022-11-27T02:17:23.103Z,2.10
2022-11-27T02:20:11.883Z,2.30
2022-11-27T02:22:52.374Z,2.40
2022-11-27T02:25:32.018Z,2.30
2022-11-27T02:28:30.973Z,2.30
2022-11-27T02:31:06.238Z,2.20
2022-11-27T02:33:38.760Z,2.20
2022-11-27T02:36:11.136Z,2.20
2022-11-27T02:38:42.692Z,2.20
2022-11-27T02:41:16.368Z,2.20
2022-11-27T02:43:47.729Z,2.20
2022-11-27T02:46:18.705Z,2.20
2022-11-27T02:48:50.369Z,2.20
2022-11-27T02:51:22.203Z,2.20
2022-11-27T02:53:54.654Z,2.10
2022-11-27T02:56:25.578Z,2.10
2022-11-27T02:58:56.044Z,2.10
2022-11-27T03:01:28.099Z,2.20
2022-11-27T03:03:59.109Z,2.10
2022-11-27T03:06:31.838Z,2.10
2022-11-27T03:09:05.081Z,2.00
2022-11-27T03:11:33.337Z,2.00
2022-11-27T03:14:05.665Z,2.00
2022-11-27T03:16:40.685Z,2.00
2022-11-27T03:19:17.265Z,2.00
2022-11-27T03:21:48.375Z,1.90
2022-11-27T03:24:16.307Z,1.80
2022-11-27T03:26:44.826Z,1.70
2022-11-27T03:29:17.823Z,1.60
2022-11-27T03:31:47.318Z,1.50
2022-11-27T03:34:16.265Z,1.40
2022-11-27T03:36:44.621Z,1.40
2022-11-27T03:39:15.631Z,1.30
2022-11-27T03:41:51.689Z,1.40
2022-11-27T03:44:27.190Z,1.50
2022-11-27T03:47:09.890Z,1.50
2022-11-27T03:49:56.052Z,1.50
2022-11-27T03:52:32.285Z,1.50
2022-11-27T03:55:09.054Z,1.50
2022-11-27T03:57:41.491Z,1.40
2022-11-27T04:00:11.272Z,1.40
2022-11-27T04:02:44.154Z,1.30
2022-11-27T04:05:13.083Z,1.30
2022-11-27T04:07:41.321Z,1.20
2022-11-27T04:10:10.689Z,1.20
2022-11-27T04:12:38.537Z,1.20
2022-11-27T04:15:07.882Z,1.20
2022-11-27T04:17:35.771Z,1.30
2022-11-27T04:20:06.537Z,1.40
2022-11-27T04:22:34.500Z,1.40
2022-11-27T04:25:02.416Z,1.40
2022-11-27T04:27:30.305Z,1.40
2022-11-27T04:29:58.149Z,1.40
2022-11-27T04:32:26.015Z,1.40
2022-11-27T04:34:53.875Z,1.40
2022-11-27T04:37:23.106Z,1.30
2022-11-27T04:39:51.012Z,1.30
2022-11-27T04:42:18.921Z,1.30
2022-11-27T04:44:46.751Z,1.30
2022-11-27T04:47:14.671Z,1.30
2022-11-27T04:49:42.567Z,1.30
2022-11-27T04:52:10.844Z,1.30
2022-11-27T04:54:40.436Z,1.20
2022-11-27T04:57:08.628Z,1.10
2022-11-27T04:59:36.526Z,1.00
2022-11-27T05:02:04.569Z,1.00
2022-11-27T05:04:32.620Z,1.10
2022-11-27T05:07:00.465Z,1.10
2022-11-27T05:09:29.484Z,1.20
2022-11-27T05:11:58.664Z,1.20
2022-11-27T05:14:29.213Z,1.20
2022-11-27T05:16:59.084Z,1.20
2022-11-27T05:19:28.903Z,1.20
2022-11-27T05:21:56.826Z,1.10
2022-11-27T05:24:26.203Z,1.10
2022-11-27T05:26:54.799Z,1.10
2022-11-27T05:29:24.628Z,1.20
2022-11-27T05:31:52.895Z,1.20
2022-11-27T05:34:20.997Z,1.20
2022-11-27T05:36:48.876Z,1.10
2022-11-27T05:39:17.057Z,1.00
2022-11-27T05:41:45.003Z,1.00
2022-11-27T05:44:13.814Z,1.00
2022-11-27T05:46:44.524Z,1.00
2022-11-27T05:49:14.052Z,1.00
2022-11-27T05:51:49.142Z,0.90
2022-11-27T05:54:18.722Z,0.80
2022-11-27T05:56:46.813Z,0.70
2022-11-27T05:59:14.929Z,0.70
2022-11-27T06:01:44.294Z,0.70
2022-11-27T06:04:12.235Z,0.60
2022-11-27T06:06:40.086Z,0.60
2022-11-27T06:09:12.520Z,0.60
2022-11-27T06:11:41.069Z,0.60
2022-11-27T06:14:09.614Z,0.60
2022-11-27T06:16:37.611Z,0.60
2022-11-27T06:19:06.835Z,0.60
2022-11-27T06:21:34.697Z,0.60
2022-11-27T06:24:03.167Z,0.60
2022-11-27T06:26:32.568Z,0.60
2022-11-27T06:29:01.677Z,0.70
2022-11-27T06:31:31.925Z,0.70
2022-11-27T06:34:00.780Z,0.60
2022-11-27T06:36:31.922Z,0.50
2022-11-27T06:38:59.952Z,0.50
2022-11-27T06:41:28.857Z,0.40
2022-11-27T06:43:59.028Z,0.40
2022-11-27T06:46:27.775Z,0.30
2022-11-27T06:48:56.557Z,0.30
2022-11-27T06:51:26.806Z,0.40
2022-11-27T06:53:56.559Z,0.60
2022-11-27T06:56:26.241Z,0.80
2022-11-27T06:58:55.151Z,0.80
2022-11-27T07:01:24.261Z,0.80
2022-11-27T07:03:52.424Z,0.70
2022-11-27T07:06:23.002Z,0.60
2022-11-27T07:08:51.310Z,0.50
2022-11-27T07:11:22.265Z,0.50
2022-11-27T07:13:51.461Z,0.60
2022-11-27T07:16:19.962Z,0.60
2022-11-27T07:18:50.061Z,0.70
2022-11-27T07:21:18.765Z,0.70
2022-11-27T07:23:47.145Z,0.70
2022-11-27T07:26:16.916Z,0.80
2022-11-27T07:28:46.585Z,0.90
2022-11-27T07:31:16.409Z,0.90
2022-11-27T07:33:44.345Z,1.00
2022-11-27T07:36:15.549Z,1.10
2022-11-27T07:38:44.005Z,1.20
2022-11-27T07:41:12.718Z,1.30
2022-11-27T07:43:41.769Z,1.50
2022-11-27T07:46:13.472Z,1.60
2022-11-27T07:48:41.379Z,1.70
2022-11-27T07:51:10.810Z,1.90
2022-11-27T07:53:39.548Z,1.90
2022-11-27T07:56:08.420Z,1.90
2022-11-27T07:58:36.404Z,1.90
2022-11-27T08:01:08.332Z,2.00
2022-11-27T08:03:38.143Z,2.10
2022-11-27T08:06:06.468Z,2.20
2022-11-27T08:08:34.717Z,2.30
2022-11-27T08:11:02.558Z,2.40
2022-11-27T08:13:30.402Z,2.40
2022-11-27T08:16:00.188Z,2.50
2022-11-27T08:18:28.091Z,2.50
2022-11-27T08:21:00.727Z,2.50
2022-11-27T08:23:28.578Z,2.60
2022-11-27T08:25:56.441Z,2.60
2022-11-27T08:28:24.447Z,2.60
2022-11-27T08:30:57.693Z,2.70
2022-11-27T08:33:25.656Z,2.80
2022-11-27T08:35:54.142Z,2.90
2022-11-27T08:38:23.535Z,3.00
2022-11-27T08:40:58.755Z,3.10
2022-11-27T08:43:27.482Z,3.20
2022-11-27T08:45:55.930Z,3.40
2022-11-27T08:48:24.696Z,3.50
2022-11-27T08:50:53.164Z,3.60
2022-11-27T08:53:21.247Z,3.70
2022-11-27T08:55:50.430Z,3.90
2022-11-27T08:58:18.388Z,4.00
2022-11-27T09:00:46.287Z,4.20
2022-11-27T09:03:14.236Z,4.20
2022-11-27T09:05:44.602Z,4.40
2022-11-27T09:08:16.359Z,4.70
2022-11-27T09:10:44.346Z,4.90
2022-11-27T09:13:13.544Z,4.90
2022-11-27T09:15:41.429Z,5.00
2022-11-27T09:18:09.293Z,5.10
2022-11-27T09:20:37.148Z,5.10
2022-11-27T09:23:07.011Z,5.10
2022-11-27T09:25:39.703Z,5.10
2022-11-27T09:28:07.646Z,5.30
2022-11-27T09:30:38.159Z,5.20
2022-11-27T09:33:05.987Z,5.20
2022-11-27T09:35:33.897Z,5.30
2022-11-27T09:38:01.793Z,5.40
2022-11-27T09:40:29.712Z,5.40
2022-11-27T09:43:03.185Z,5.50
2022-11-27T09:45:32.109Z,5.70
2022-11-27T09:48:04.059Z,5.80
2022-11-27T09:50:35.676Z,5.70
2022-11-27T09:53:12.936Z,5.60
2022-11-27T09:55:45.285Z,5.60
2022-11-27T09:58:18.908Z,5.60
2022-11-27T10:00:47.179Z,5.70
2022-11-27T10:03:19.938Z,5.70
2022-11-27T10:05:55.240Z,5.80
2022-11-27T10:08:36.365Z,6.00
2022-11-27T10:11:16.912Z,6.00
2022-11-27T10:14:11.865Z,6.00
2022-11-27T10:16:44.837Z,5.90
2022-11-27T10:19:28.390Z,6.00
2022-11-27T10:22:03.306Z,6.10
2022-11-27T10:24:40.274Z,6.10
2022-11-27T10:27:18.990Z,6.20
2022-11-27T10:29:52.622Z,6.40
2022-11-27T10:32:53.413Z,6.50
2022-11-27T10:35:17.283Z,6.60
2022-11-27T10:37:49.539Z,6.70
2022-11-27T10:40:24.084Z,6.90
2022-11-27T10:42:59.247Z,7.20
2022-11-27T10:45:34.004Z,7.90
2022-11-27T10:48:01.926Z,8.70
2022-11-27T10:50:31.118Z,9.40
2022-11-27T10:53:01.705Z,10.10
2022-11-27T10:55:41.049Z,10.50
2022-11-27T10:58:18.095Z,10.50
2022-11-27T11:00:46.073Z,10.70
2022-11-27T11:03:18.674Z,11.20
2022-11-27T11:06:19.053Z,11.60
2022-11-27T11:08:46.379Z,11.80
2022-11-27T11:11:14.384Z,12.20
2022-11-27T11:13:47.022Z,12.30
2022-11-27T11:16:24.202Z,12.60
2022-11-27T11:18:54.502Z,12.80
2022-11-27T11:21:28.505Z,13.00
2022-11-27T11:24:00.394Z,13.20
2022-11-27T11:26:31.929Z,13.30
2022-11-27T11:29:02.712Z,13.40
2022-11-27T11:31:33.416Z,13.50
2022-11-27T11:34:04.635Z,13.20
2022-11-27T11:36:34.076Z,12.90
2022-11-27T11:39:01.991Z,12.20
2022-11-27T11:41:38.065Z,11.50
2022-11-27T11:44:06.477Z,11.00
2022-11-27T11:46:36.728Z,10.60
2022-11-27T11:49:09.308Z,10.50
2022-11-27T11:51:54.900Z,10.30
2022-11-27T11:54:40.805Z,10.20
2022-11-27T11:57:25.671Z,10.10
2022-11-27T11:59:58.795Z,10.10
2022-11-27T12:02:40.808Z,10.00
2022-11-27T12:05:19.635Z,10.00
2022-11-27T12:08:05.351Z,9.90
2022-11-27T12:10:45.616Z,9.90
2022-11-27T12:13:23.531Z,9.80
2022-11-27T12:15:59.878Z,9.80
2022-11-27T12:18:39.431Z,9.80
2022-11-27T12:21:16.001Z,9.80
2022-11-27T12:24:02.810Z,9.70
2022-11-27T12:26:44.267Z,9.70
2022-11-27T12:29:30.041Z,9.60
2022-11-27T12:32:19.371Z,9.50
2022-11-27T12:34:58.598Z,9.50
2022-11-27T12:37:44.371Z,9.50
2022-11-27T12:40:29.567Z,9.50
2022-11-27T12:43:04.365Z,9.50
2022-11-27T12:45:38.237Z,9.70
2022-11-27T12:48:13.718Z,9.70
2022-11-27T12:50:44.839Z,9.70
2022-11-27T12:53:24.493Z,9.70
2022-11-27T12:56:02.040Z,9.70
2022-11-27T12:58:34.524Z,9.70
2022-11-27T13:01:07.390Z,9.60
2022-11-27T13:03:42.736Z,9.60
2022-11-27T13:06:14.773Z,9.60
2022-11-27T13:08:52.296Z,9.70
2022-11-27T13:11:27.235Z,9.80
2022-11-27T13:13:59.940Z,9.80
2022-11-27T13:16:32.525Z,9.80
2022-11-27T13:19:07.295Z,9.80
2022-11-27T13:21:36.777Z,9.90
2022-11-27T13:24:05.612Z,9.90
2022-11-27T13:26:37.292Z,10.00
2022-11-27T13:29:09.726Z,10.00
2022-11-27T13:31:39.405Z,10.00
2022-11-27T13:34:12.571Z,10.00
2022-11-27T13:36:44.626Z,10.00
2022-11-27T13:39:24.307Z,10.10
2022-11-27T13:42:04.493Z,10.10
2022-11-27T13:45:13.311Z,10.20
2022-11-27T13:47:45.421Z,10.40
2022-11-27T13:50:15.548Z,10.20
2022-11-27T13:52:57.235Z,10.20
2022-11-27T13:55:29.296Z,10.10
2022-11-27T13:58:00.972Z,10.00
2022-11-27T14:00:35.427Z,10.00
2022-11-27T14:03:04.113Z,10.00
2022-11-27T14:05:40.098Z,10.00
2022-11-27T14:08:19.240Z,10.00
2022-11-27T14:10:54.663Z,10.00
2022-11-27T14:13:33.825Z,9.90
2022-11-27T14:16:04.752Z,9.90
2022-11-27T14:18:32.949Z,9.80
2022-11-27T14:21:03.203Z,9.70
2022-11-27T14:23:32.695Z,9.70
2022-11-27T14:26:10.568Z,9.60
2022-11-27T14:28:45.012Z,9.60
2022-11-27T14:31:24.014Z,9.50
2022-11-27T14:36:39.841Z,9.40
2022-11-27T14:39:07.905Z,9.40
2022-11-27T14:41:35.775Z,9.40
2022-11-27T14:44:06.791Z,9.40
2022-11-27T14:46:37.081Z,9.30
2022-11-27T14:49:05.274Z,9.30
2022-11-27T14:51:35.615Z,9.30
2022-11-27T14:54:06.082Z,9.30
2022-11-27T14:56:36.443Z,9.30
2022-11-27T14:59:06.783Z,9.20
2022-11-27T15:01:36.608Z,9.20
2022-11-27T15:04:06.518Z,9.10
2022-11-27T15:06:37.839Z,9.10
2022-11-27T15:09:30.898Z,9.10
2022-11-27T15:11:56.653Z,9.00
2022-11-27T15:14:28.479Z,9.00
2022-11-27T15:16:58.334Z,9.00
2022-11-27T15:19:29.352Z,9.00
2022-11-27T15:21:58.077Z,9.00
2022-11-27T15:24:31.548Z,9.00
2022-11-27T15:27:15.884Z,8.90
2022-11-27T15:30:00.939Z,8.90
2022-11-27T15:32:45.613Z,8.90
2022-11-27T15:35:15.762Z,9.00
2022-11-27T15:37:44.155Z,9.00
2022-11-27T15:40:31.692Z,9.00
2022-11-27T15:42:59.569Z,8.90
2022-11-27T15:45:33.679Z,8.80
2022-11-27T15:48:02.673Z,8.80
2022-11-27T15:50:31.143Z,8.80
2022-11-27T15:53:00.871Z,8.90
2022-11-27T15:55:28.751Z,8.90
2022-11-27T15:57:56.649Z,8.90
2022-11-27T16:00:25.977Z,8.80
2022-11-27T16:02:55.464Z,8.80
2022-11-27T16:05:23.364Z,8.70
2022-11-27T16:07:54.903Z,8.50
2022-11-27T16:10:23.355Z,8.30
2022-11-27T16:12:54.809Z,8.20
2022-11-27T16:15:23.610Z,8.10
2022-11-27T16:17:53.652Z,8.00
2022-11-27T16:20:22.845Z,7.90
2022-11-27T16:22:50.822Z,8.00
2022-11-27T16:25:19.228Z,7.90
2022-11-27T16:27:48.680Z,7.90
2022-11-27T16:30:19.836Z,7.90
2022-11-27T16:32:48.418Z,8.00
2022-11-27T16:35:16.912Z,8.00
2022-11-27T16:37:47.462Z,8.00
2022-11-27T16:40:15.783Z,7.90
2022-11-27T16:42:45.421Z,7.90
2022-11-27T16:45:13.318Z,7.90
2022-11-27T16:47:41.734Z,7.80
2022-11-27T16:50:10.929Z,7.80
2022-11-27T16:52:38.925Z,7.80
2022-11-27T16:55:09.940Z,7.80
2022-11-27T16:57:39.528Z,7.90
2022-11-27T17:00:08.795Z,7.90
2022-11-27T17:02:37.162Z,7.90
2022-11-27T17:05:05.359Z,7.90
2022-11-27T17:07:33.425Z,8.00
2022-11-27T17:10:01.591Z,7.90
2022-11-27T17:12:31.054Z,8.00
2022-11-27T17:14:59.411Z,8.00
2022-11-27T17:17:27.354Z,7.90
2022-11-27T17:20:00.374Z,7.90
2022-11-27T17:22:30.424Z,7.90
2022-11-27T17:24:58.914Z,8.00
2022-11-27T17:27:26.944Z,8.00
2022-11-27T17:29:56.444Z,8.00
2022-11-27T17:32:25.125Z,7.90
2022-11-27T17:34:54.729Z,7.90
2022-11-27T17:37:22.845Z,7.80
2022-11-27T17:39:50.778Z,7.80
2022-11-27T17:42:22.703Z,7.70
2022-11-27T17:44:51.480Z,7.70
2022-11-27T17:47:20.665Z,7.60
2022-11-27T17:49:48.585Z,7.60
2022-11-27T17:52:16.726Z,7.50
2022-11-27T17:54:44.830Z,7.50
2022-11-27T17:57:12.763Z,7.40
2022-11-27T17:59:41.046Z,7.40
2022-11-27T18:02:10.451Z,7.40
2022-11-27T18:04:40.229Z,7.40
2022-11-27T18:07:08.578Z,7.40
2022-11-27T18:09:36.762Z,7.40
2022-11-27T18:12:06.405Z,7.30
2022-11-27T18:14:34.751Z,7.30
2022-11-27T18:17:04.782Z,7.30
2022-11-27T18:19:33.093Z,7.30
2022-11-27T18:22:02.309Z,7.30
2022-11-27T18:24:30.224Z,7.30
2022-11-27T18:27:13.533Z,7.40
2022-11-27T18:29:44.398Z,7.40
2022-11-27T18:32:13.841Z,7.40
2022-11-27T18:34:42.700Z,7.40
2022-11-27T18:37:12.250Z,7.30
2022-11-27T18:39:41.049Z,7.20
2022-11-27T18:42:09.615Z,7.20
2022-11-27T18:44:44.352Z,7.20
2022-11-27T18:47:13.944Z,7.10
2022-11-27T18:49:43.680Z,7.10
2022-11-27T18:52:13.707Z,7.10
2022-11-27T18:54:41.942Z,7.10
2022-11-27T18:57:11.007Z,7.10
2022-11-27T18:59:40.026Z,7.10
2022-11-27T19:02:09.106Z,7.10
2022-11-27T19:04:37.472Z,7.10
2022-11-27T19:07:05.594Z,7.20
2022-11-27T19:09:34.883Z,7.10
2022-11-27T19:12:03.266Z,7.10
2022-11-27T19:14:31.916Z,7.10
2022-11-27T19:17:00.086Z,7.10
2022-11-27T19:22:20.852Z,7.00
2022-11-27T19:24:50.113Z,7.00
2022-11-27T19:27:19.279Z,7.00
2022-11-27T19:29:47.156Z,7.10
2022-11-27T19:32:15.109Z,7.10
2022-11-27T19:34:43.476Z,7.10
2022-11-27T19:37:12.537Z,7.20
2022-11-27T19:39:40.587Z,7.30
2022-11-27T19:42:09.960Z,7.30
2022-11-27T19:44:38.394Z,7.20
2022-11-27T19:47:06.600Z,7.20
2022-11-27T19:49:34.439Z,7.30
2022-11-27T19:52:03.951Z,7.30
2022-11-27T19:54:32.181Z,7.40
2022-11-27T19:57:00.254Z,7.50
2022-11-27T19:59:29.507Z,7.60
2022-11-27T20:01:57.484Z,7.60
2022-11-27T20:04:29.654Z,7.60
2022-11-27T20:06:57.552Z,7.60
2022-11-27T20:09:25.606Z,7.50
2022-11-27T20:11:53.665Z,7.50
2022-11-27T20:14:22.479Z,7.40
2022-11-27T20:16:52.111Z,7.30
2022-11-27T20:19:20.120Z,7.20
2022-11-27T20:21:48.075Z,7.10
2022-11-27T20:24:17.071Z,7.10
2022-11-27T20:26:45.388Z,7.00
2022-11-27T20:29:14.029Z,7.00
2022-11-27T20:31:45.007Z,6.80
2022-11-27T20:34:18.931Z,6.80
2022-11-27T20:36:47.247Z,6.80
2022-11-27T20:39:20.856Z,6.80
2022-11-27T20:41:51.510Z,6.80
2022-11-27T20:44:19.527Z,6.80
2022-11-27T20:46:47.717Z,6.80
2022-11-27T20:49:17.422Z,6.80
2022-11-27T20:51:46.546Z,6.70
2022-11-27T20:54:14.434Z,6.70
2022-11-27T20:56:45.573Z,6.60
2022-11-27T20:59:14.080Z,6.50
2022-11-27T21:01:43.196Z,6.50
2022-11-27T21:04:21.855Z,6.50
2022-11-27T21:06:50.378Z,6.50
2022-11-27T21:09:20.578Z,6.50
2022-11-27T21:11:48.863Z,6.50
2022-11-27T21:14:18.124Z,6.60
2022-11-27T21:16:48.513Z,6.70
2022-11-27T21:19:20.731Z,6.60
2022-11-27T21:21:50.689Z,6.60
2022-11-27T21:24:19.534Z,6.70
2022-11-27T21:26:48.395Z,6.80
2022-11-27T21:29:17.010Z,6.90
2022-11-27T21:31:47.403Z,6.90
2022-11-27T21:34:16.374Z,7.00
2022-11-27T21:36:46.740Z,6.90
2022-11-27T21:39:20.330Z,7.00
2022-11-27T21:41:49.563Z,6.90
2022-11-27T21:44:17.984Z,6.90
2022-11-27T21:46:46.407Z,6.90
2022-11-27T21:49:16.780Z,6.70
2022-11-27T21:51:46.291Z,6.70
2022-11-27T21:54:15.871Z,6.80
2022-11-27T21:56:43.794Z,6.80
2022-11-27T21:59:13.553Z,6.90
2022-11-27T22:01:41.935Z,6.80
2022-11-27T22:04:09.910Z,6.70
2022-11-27T22:06:39.853Z,6.80
2022-11-27T22:09:15.113Z,6.70
2022-11-27T22:11:44.368Z,6.70
2022-11-27T22:14:12.555Z,6.60
2022-11-27T22:16:45.180Z,6.50
2022-11-27T22:19:15.140Z,6.40
2022-11-27T22:21:43.843Z,6.40
2022-11-27T22:24:18.316Z,6.40
2022-11-27T22:26:48.697Z,6.50
2022-11-27T22:29:16.739Z,6.60
2022-11-27T22:31:44.604Z,6.50
2022-11-27T22:34:12.570Z,6.50
2022-11-27T22:36:40.830Z,6.40
2022-11-27T22:39:09.583Z,6.50
2022-11-27T22:41:41.172Z,6.40
2022-11-27T22:44:12.125Z,6.50
2022-11-27T22:46:42.196Z,6.50
2022-11-27T22:49:12.982Z,6.50
2022-11-27T22:51:41.880Z,6.50
2022-11-27T22:54:12.879Z,6.70
2022-11-27T22:56:42.591Z,6.80
2022-11-27T22:59:31.791Z,6.80
2022-11-27T23:02:00.207Z,6.80
2022-11-27T23:04:28.405Z,6.60
2022-11-27T23:06:56.288Z,6.50
2022-11-27T23:09:24.584Z,6.40
2022-11-27T23:11:54.024Z,6.50
2022-11-27T23:14:21.894Z,6.50
2022-11-27T23:16:50.075Z,6.50
2022-11-27T23:19:18.006Z,6.50
2022-11-27T23:21:45.904Z,6.40
2022-11-27T23:24:15.955Z,6.40
2022-11-27T23:26:44.252Z,6.30
2022-11-27T23:29:14.204Z,6.20
2022-11-27T23:31:42.133Z,6.20
2022-11-27T23:34:15.290Z,6.20
2022-11-27T23:36:43.164Z,6.20
2022-11-27T23:39:13.405Z,6.30
2022-11-27T23:41:41.509Z,6.30
2022-11-27T23:44:09.603Z,6.30
2022-11-27T23:46:38.837Z,6.30
2022-11-27T23:49:06.693Z,6.30
2022-11-27T23:51:34.550Z,6.30
2022-11-27T23:54:03.075Z,6.30
2022-11-27T23:56:32.847Z,6.20
2022-11-27T23:59:01.674Z,6.20
